Pahoa, HI (96778)

10:22 PM HST on February 13, 2016 (GMT -1000)
Hawaiian Shores Rec. (Malolo St.) | | Change Station
CLOSE
Current Station
Personal Weather Station
Location: Pahoa, HI
Elevation: 217 ft
Nearby Weather Stations

Elev 217 ft 19.54 °N, 154.90 °W | Updated 2 seconds ago

Partly Cloudy
Partly Cloudy
71.1 °F
Feels Like 71.1 °F
N
0.0
Wind Variable Wind from WSW
Gusts 0.0 mph

Today
High -- | Low -- °F
--% Chance of Precip.
Yesterday
High -- | Low -- °F
Precip. -- in
Pressure 30.12 in
Visibility 10.0 miles
Clouds Few 2900 ft
Dew Point 70 °F
Humidity 97%
Rainfall 0.20 in
Snow Depth Not available.
6:49 AM 6:18 PM
Waxing Crescent, 39% visible
METAR PHTO 140753Z VRB04KT 10SM FEW029 22/18 A3012 RMK AO2 RAB07E18 SLP197 P0000 T02170183
Pressure 30.12 in
Visibility 10.0 miles
Clouds Few 2900 ft
Dew Point 70 °F
Humidity 97%
Rainfall 0.20 in
Snow Depth Not available.
6:49 AM 6:18 PM
Waxing Crescent, 39% visible
METAR PHTO 140753Z VRB04KT 10SM FEW029 22/18 A3012 RMK AO2 RAB07E18 SLP197 P0000 T02170183

10-Day Weather Forecast

Almanac

Astronomy

Feb. 13, 2016 Rise Set
Actual Time
Civil Twilight
Nautical Twilight
Astronomical Twilight
Moon
Length of Visible Light
Length of Day
Tomorrow will be .
, % of the Moon is Illuminated

Today's Extremes

State Highs State Lows

Community

WunderPhotos

Upload Photos

1,892,757 photos uploaded!

WunderBlog® & News

Nearby

Air Quality

  Air Quality AQ Index Pollutant
Not available.

Snow Depth

Station Depth Elevation

Earthquake Activity

City Distance Mag. Time & Date
Minimum magnitude displayed is 2.5.

Coastal Water Temperatures

Place Temperature

Stations

Nearby Weather Stations

Station Location Temp. Windchill Dew Point Humidity Wind Precip. Elev Updated Type
                   

Watches & Warnings

There are currently no watches in effect.